createdAt,value
2016-11-28T04:01:15.005Z,0
2016-11-28T04:01:42.235Z,0
2016-11-28T04:02:07.895Z,0
2016-11-28T04:02:33.489Z,0
2016-11-28T04:02:59.034Z,0
2016-11-28T04:03:25.281Z,0
2016-11-28T04:03:50.836Z,0
2016-11-28T04:04:16.572Z,0
2016-11-28T04:04:42.097Z,0
2016-11-28T04:05:07.646Z,0
2016-11-28T04:05:33.929Z,0
2016-11-28T04:06:00.262Z,0
2016-11-28T04:06:25.841Z,0
2016-11-28T04:06:51.410Z,0
2016-11-28T04:07:16.931Z,0
2016-11-28T04:07:42.598Z,0
2016-11-28T04:08:08.145Z,0
2016-11-28T04:08:33.710Z,0
2016-11-28T04:08:59.279Z,0
2016-11-28T04:09:24.831Z,0
2016-11-28T04:09:50.399Z,0
2016-11-28T04:10:15.929Z,0
2016-11-28T04:10:41.508Z,0
2016-11-28T04:11:07.065Z,0
2016-11-28T04:11:32.610Z,0
2016-11-28T04:11:58.167Z,0
2016-11-28T04:12:23.815Z,0
2016-11-28T04:12:49.369Z,0
2016-11-28T04:13:14.940Z,0
2016-11-28T04:13:40.563Z,0
2016-11-28T04:14:06.188Z,0
2016-11-28T04:14:31.761Z,0
2016-11-28T04:14:57.301Z,0
2016-11-28T04:15:22.862Z,0
2016-11-28T04:15:48.414Z,0
2016-11-28T04:16:13.967Z,0
2016-11-28T04:16:39.545Z,0
2016-11-28T04:17:05.117Z,0
2016-11-28T04:17:30.725Z,0
2016-11-28T04:17:56.469Z,0
2016-11-28T04:18:22.284Z,0
2016-11-28T04:18:47.971Z,0
2016-11-28T04:19:13.526Z,0
2016-11-28T04:19:39.051Z,0
2016-11-28T04:20:04.594Z,0
2016-11-28T04:20:30.153Z,0
2016-11-28T04:20:55.711Z,0
2016-11-28T04:21:21.253Z,0
2016-11-28T04:21:46.780Z,0
2016-11-28T04:22:12.352Z,0
2016-11-28T04:22:37.887Z,0
2016-11-28T04:23:03.465Z,0
2016-11-28T04:23:29.022Z,0
2016-11-28T04:23:54.549Z,0
2016-11-28T04:24:20.084Z,0
2016-11-28T04:24:45.606Z,0
2016-11-28T04:25:11.129Z,0
2016-11-28T04:25:36.663Z,0
2016-11-28T04:26:02.280Z,0
2016-11-28T04:26:27.918Z,0
2016-11-28T04:26:53.415Z,0
2016-11-28T04:27:18.945Z,0
2016-11-28T04:27:44.470Z,0
2016-11-28T04:28:09.980Z,0
2016-11-28T04:28:35.625Z,0
2016-11-28T04:29:01.208Z,0
2016-11-28T04:29:26.735Z,0
2016-11-28T04:29:52.259Z,0
2016-11-28T04:30:17.774Z,0
2016-11-28T04:30:43.305Z,0
2016-11-28T04:31:08.839Z,0
2016-11-28T04:31:34.440Z,0
2016-11-28T04:31:59.933Z,0
2016-11-28T04:32:25.486Z,0
2016-11-28T04:32:51.005Z,0
2016-11-28T04:33:16.527Z,0
2016-11-28T04:33:42.036Z,0
2016-11-28T04:34:07.635Z,0
2016-11-28T04:34:33.159Z,0
2016-11-28T04:34:58.686Z,0
2016-11-28T04:35:24.208Z,0
2016-11-28T04:35:49.808Z,0
2016-11-28T04:36:15.368Z,0
2016-11-28T04:36:40.904Z,0
2016-11-28T04:37:06.427Z,0
2016-11-28T04:37:31.958Z,0
2016-11-28T04:37:57.509Z,0
2016-11-28T04:38:23.022Z,0
2016-11-28T04:38:48.541Z,0
2016-11-28T04:39:14.189Z,0
2016-11-28T04:39:39.759Z,0
2016-11-28T04:40:05.319Z,0
2016-11-28T04:40:30.855Z,0
2016-11-28T04:40:56.388Z,0
2016-11-28T04:41:21.914Z,0
2016-11-28T04:41:47.434Z,0
2016-11-28T04:42:12.964Z,0
2016-11-28T04:42:38.512Z,0
2016-11-28T04:43:04.176Z,0
2016-11-28T04:43:29.715Z,0
2016-11-28T04:43:55.223Z,0
2016-11-28T04:44:20.795Z,0
2016-11-28T04:44:46.344Z,0
2016-11-28T04:45:11.904Z,0
2016-11-28T04:45:37.499Z,0
2016-11-28T04:46:03.040Z,0
2016-11-28T04:46:28.606Z,0
2016-11-28T04:46:54.152Z,0
2016-11-28T04:47:19.669Z,0
2016-11-28T04:47:45.230Z,0
2016-11-28T04:48:10.792Z,0
2016-11-28T04:48:36.349Z,0
2016-11-28T04:49:01.895Z,0
2016-11-28T04:49:27.456Z,0
2016-11-28T04:49:53.018Z,0
2016-11-28T04:50:18.566Z,0
2016-11-28T04:50:52.958Z,0
2016-11-28T04:51:18.501Z,0
2016-11-28T04:51:45.929Z,0
2016-11-28T04:52:14.155Z,0
2016-11-28T04:52:39.728Z,0
2016-11-28T04:53:08.875Z,0
2016-11-28T04:53:34.449Z,0
2016-11-28T04:54:00.920Z,0
2016-11-28T04:54:28.422Z,0
2016-11-28T04:54:54.081Z,0
2016-11-28T04:55:20.544Z,0
2016-11-28T04:55:47.667Z,0
2016-11-28T04:56:14.932Z,0
2016-11-28T04:56:49.022Z,0
2016-11-28T09:55:31.853Z,3972
2016-11-28T09:56:05.328Z,4000
2016-11-28T09:56:38.801Z,4044
2016-11-28T09:57:11.777Z,4060
2016-11-28T09:58:21.861Z,3996
2016-11-28T09:59:44.845Z,4172
2016-11-28T10:00:18.289Z,4212
2016-11-28T10:00:51.789Z,4228
2016-11-28T10:02:08.073Z,4304
2016-11-28T10:02:41.140Z,4320
2016-11-28T10:03:14.962Z,4332
2016-11-28T10:03:48.335Z,4352
2016-11-28T10:04:21.853Z,4388
2016-11-28T10:04:55.299Z,4424
2016-11-28T10:05:27.929Z,4116
2016-11-28T10:06:38.399Z,2844
2016-11-28T10:07:11.367Z,2748
2016-11-28T10:07:41.268Z,2964
2016-11-28T10:09:03.754Z,4432
2016-11-28T10:10:13.975Z,4428
2016-11-28T10:12:26.048Z,4432
2016-11-28T10:13:35.995Z,4396
2016-11-28T10:14:52.465Z,4368
2016-11-28T10:15:25.824Z,4392
2016-11-28T10:15:58.749Z,4440
2016-11-28T10:18:54.685Z,4512
2016-11-28T10:21:00.539Z,3464
2016-11-28T10:22:36.285Z,3776
2016-11-28T10:23:09.888Z,3864
2016-11-28T10:24:32.909Z,3996
2016-11-28T10:25:05.824Z,4144
2016-11-28T10:25:39.324Z,4320
2016-11-28T10:26:55.481Z,4768
2016-11-28T10:27:28.891Z,4880
2016-11-28T10:28:45.122Z,4948
2016-11-28T10:29:18.617Z,4956
2016-11-28T10:29:52.045Z,4964
2016-11-28T10:32:04.357Z,4956
2016-11-28T10:32:37.127Z,4972
2016-11-28T10:33:05.455Z,4984
2016-11-28T10:33:39.297Z,4980
2016-11-28T10:34:12.677Z,4900
2016-11-28T10:34:45.882Z,4984
2016-11-28T10:36:15.629Z,4988
2016-11-28T10:36:49.053Z,5064
2016-11-28T10:37:21.683Z,5128
2016-11-28T10:39:34.726Z,5292
2016-11-28T10:40:07.427Z,5356
2016-11-28T10:42:56.454Z,5568
2016-11-28T10:44:30.913Z,5644
2016-11-28T10:45:39.546Z,5656
2016-11-28T10:46:49.614Z,5648
2016-11-28T10:49:07.097Z,5788
2016-11-28T10:49:39.873Z,5800
2016-11-28T10:50:13.483Z,5804
2016-11-28T10:50:42.617Z,5816
2016-11-28T10:55:16.850Z,5876
2016-11-28T10:56:32.837Z,5952
2016-11-28T10:58:45.349Z,6036
2016-11-28T10:59:17.862Z,6044
2016-11-28T11:02:13.541Z,6060
2016-11-28T11:02:43.960Z,6056
2016-11-28T11:03:15.707Z,6060
2016-11-28T11:04:25.837Z,6092
2016-11-28T11:04:59.200Z,6052
2016-11-28T11:06:35.469Z,6036
2016-11-28T11:07:08.442Z,5968
2016-11-28T11:08:18.570Z,5804
2016-11-28T11:08:50.716Z,5744
2016-11-28T11:10:01.360Z,5548
2016-11-28T11:11:17.524Z,5236
2016-11-28T11:11:50.943Z,5160
2016-11-28T11:12:24.372Z,5096
2016-11-28T11:13:47.128Z,4848
2016-11-28T11:16:55.220Z,4668
2016-11-28T11:18:05.140Z,4712
2016-11-28T11:20:21.892Z,5004
2016-11-28T11:23:37.307Z,4848
2016-11-28T11:24:10.891Z,4824
2016-11-28T11:24:44.213Z,4576
2016-11-28T11:25:17.561Z,4332
2016-11-28T11:25:50.233Z,4396
2016-11-28T11:28:02.650Z,4216
2016-11-28T11:30:08.890Z,3896
2016-11-28T11:31:31.242Z,3716
2016-11-28T11:32:41.541Z,3728
2016-11-28T11:33:15.036Z,3780
2016-11-28T11:33:48.132Z,3848
2016-11-28T11:34:21.796Z,3936
2016-11-28T11:34:55.656Z,3972
